Time;durP1;ratioP1;P1;durP2;ratioP2;P2;SDS_P1;SDS_P2;PMS_P1;PMS_P2;Temp;Humidity;BMP_temperature;BMP_pressure;BME280_temperature;BME280_humidity;BME280_pressure;Samples;Min_cycle;Max_cycle;Signal;HPM_P1;HPM_P2
2022/03/23 00:01:59;;;;;;;43.90;25.25;;;8.00;99.90;;;;;;6239804;22;20405;-60
2022/03/23 00:04:25;;;;;;;47.13;27.73;;;8.00;99.90;;;;;;6266818;22;20062;-59
2022/03/23 00:06:51;;;;;;;41.92;26.92;;;7.90;99.90;;;;;;6267405;22;20023;-58
2022/03/23 00:09:16;;;;;;;44.13;26.67;;;7.80;99.90;;;;;;6266562;22;20022;-57
2022/03/23 00:11:42;;;;;;;42.83;26.30;;;7.90;99.90;;;;;;6266408;22;20019;-58
2022/03/23 00:14:09;;;;;;;39.47;25.02;;;7.80;99.90;;;;;;6267017;22;20461;-59
2022/03/23 00:16:36;;;;;;;46.97;27.02;;;7.80;99.90;;;;;;6267117;22;20023;-57
2022/03/23 00:19:04;;;;;;;48.28;28.73;;;7.70;99.90;;;;;;6266319;22;20016;-58
2022/03/23 00:21:33;;;;;;;47.50;27.50;;;7.70;99.90;;;;;;6267173;22;20020;-57
2022/03/23 00:23:58;;;;;;;45.47;27.83;;;7.60;99.90;;;;;;6239587;22;20024;-57
2022/03/23 00:26:24;;;;;;;44.63;27.25;;;7.60;99.90;;;;;;6266348;22;20327;-57
2022/03/23 00:28:50;;;;;;;50.00;28.65;;;7.90;99.90;;;;;;6266345;22;20024;-58
2022/03/23 00:31:16;;;;;;;47.42;29.00;;;7.60;99.90;;;;;;6238704;22;20473;-59
2022/03/23 00:33:42;;;;;;;46.97;28.83;;;7.50;99.90;;;;;;6267387;22;20015;-58
2022/03/23 00:36:09;;;;;;;41.83;26.30;;;6.60;99.90;;;;;;6266899;22;20073;-56
2022/03/23 00:38:35;;;;;;;41.15;25.98;;;7.40;99.90;;;;;;6265918;22;20020;-59
2022/03/23 00:41:01;;;;;;;43.75;25.95;;;7.40;99.90;;;;;;6238704;22;20380;-60
2022/03/23 00:43:27;;;;;;;48.83;27.95;;;7.30;99.90;;;;;;6238886;22;20047;-58
2022/03/23 00:45:54;;;;;;;44.03;26.55;;;7.30;99.90;;;;;;6266455;22;20047;-59
2022/03/23 00:48:20;;;;;;;48.22;28.33;;;7.30;99.90;;;;;;6267367;22;20016;-60
2022/03/23 00:50:46;;;;;;;46.08;27.85;;;7.30;99.90;;;;;;6266544;22;20012;-58
2022/03/23 00:53:12;;;;;;;52.60;29.45;;;7.20;99.90;;;;;;6265779;22;20024;-62
2022/03/23 00:55:40;;;;;;;42.08;26.17;;;7.20;99.90;;;;;;6267099;22;20016;-59
2022/03/23 00:58:06;;;;;;;44.60;27.77;;;7.20;99.90;;;;;;6268001;22;20035;-66
2022/03/23 01:00:35;;;;;;;48.08;29.52;;;7.20;99.90;;;;;;6241067;22;20042;-57
2022/03/23 01:03:00;;;;;;;42.42;28.83;;;7.10;99.90;;;;;;6268877;22;20460;-56
2022/03/23 01:05:26;;;;;;;47.35;29.02;;;7.10;99.90;;;;;;6268798;22;20016;-58
2022/03/23 01:07:52;;;;;;;44.35;27.08;;;7.10;99.90;;;;;;6269094;22;20442;-61
2022/03/23 01:10:19;;;;;;;50.05;27.75;;;7.00;99.90;;;;;;6268716;22;20070;-65
2022/03/23 01:12:46;;;;;;;43.65;27.08;;;6.90;99.90;;;;;;6240906;22;20028;-62
2022/03/23 01:15:19;;;;;;;44.80;27.75;;;6.90;99.90;;;;;;6241053;22;20070;-59
2022/03/23 01:17:45;;;;;;;43.78;27.77;;;6.90;99.90;;;;;;6268980;22;20081;-64
2022/03/23 01:20:14;;;;;;;40.53;24.75;;;6.90;99.90;;;;;;6268362;22;20118;-58
2022/03/23 01:22:41;;;;;;;47.95;26.38;;;6.90;99.90;;;;;;6267722;22;20019;-57
2022/03/23 01:25:08;;;;;;;45.30;25.95;;;6.90;99.90;;;;;;6268163;22;20679;-57
2022/03/23 01:27:35;;;;;;;41.30;26.60;;;6.80;99.90;;;;;;6267262;22;20015;-57
2022/03/23 01:30:02;;;;;;;43.17;26.23;;;6.80;99.90;;;;;;6240786;22;20741;-57
2022/03/23 01:32:29;;;;;;;46.78;27.25;;;6.70;99.90;;;;;;6268565;22;20499;-58
2022/03/23 01:34:55;;;;;;;49.83;27.80;;;6.70;99.90;;;;;;6240427;22;20122;-57
2022/03/23 01:37:20;;;;;;;50.53;29.08;;;6.60;99.90;;;;;;6267531;22;20122;-56
2022/03/23 01:39:46;;;;;;;47.33;29.63;;;6.70;99.90;;;;;;6267765;22;20019;-57
2022/03/23 01:42:11;;;;;;;49.42;28.58;;;6.60;99.90;;;;;;6268465;22;20418;-57
2022/03/23 01:44:37;;;;;;;54.40;30.50;;;6.60;99.90;;;;;;6268897;22;20303;-57
2022/03/23 01:47:15;;;;;;;54.17;30.25;;;6.60;99.90;;;;;;6267966;22;20338;-57
2022/03/23 01:49:48;;;;;;;49.25;30.75;;;6.60;99.90;;;;;;6267747;22;20509;-57
2022/03/23 01:52:17;;;;;;;55.45;33.17;;;6.60;99.90;;;;;;6268457;22;20019;-57
2022/03/23 01:54:43;;;;;;;56.65;32.28;;;6.50;99.90;;;;;;6268139;22;20086;-57
2022/03/23 01:57:12;;;;;;;57.47;33.25;;;6.50;99.90;;;;;;6268022;22;20513;-57
2022/03/23 01:59:39;;;;;;;55.90;31.58;;;6.50;99.90;;;;;;6268538;22;20015;-57
2022/03/23 02:02:06;;;;;;;57.95;33.20;;;6.50;99.90;;;;;;6267766;22;20024;-57
2022/03/23 02:04:32;;;;;;;54.53;33.40;;;6.50;99.90;;;;;;6267445;22;20023;-57
2022/03/23 02:06:57;;;;;;;56.50;32.83;;;6.50;99.90;;;;;;6268160;22;20062;-57
2022/03/23 02:09:25;;;;;;;62.17;34.40;;;6.40;99.90;;;;;;6267253;22;20020;-59
2022/03/23 02:11:52;;;;;;;61.33;34.65;;;6.40;99.90;;;;;;6268112;22;20019;-59
2022/03/23 02:14:19;;;;;;;49.20;31.02;;;6.30;99.90;;;;;;6268852;22;20377;-60
2022/03/23 02:16:50;;;;;;;56.03;32.45;;;6.30;99.90;;;;;;6268379;22;20030;-60
2022/03/23 02:19:17;;;;;;;54.20;30.27;;;6.30;99.90;;;;;;6268494;22;20083;-60
2022/03/23 02:21:54;;;;;;;61.88;33.80;;;6.20;99.90;;;;;;6267924;22;20062;-60
2022/03/23 02:24:26;;;;;;;56.75;30.98;;;6.20;99.90;;;;;;6267948;22;20050;-59
2022/03/23 02:26:52;;;;;;;53.33;32.88;;;6.10;99.90;;;;;;6267479;22;20016;-59
2022/03/23 02:29:20;;;;;;;52.38;30.67;;;6.10;99.90;;;;;;6268000;22;20067;-59
2022/03/23 02:31:46;;;;;;;53.08;30.27;;;6.10;99.90;;;;;;6267885;22;20028;-60
2022/03/23 02:34:12;;;;;;;56.05;30.02;;;6.00;99.90;;;;;;6267497;22;20015;-57
2022/03/23 02:36:38;;;;;;;52.30;30.60;;;6.00;99.90;;;;;;6267832;22;20464;-57
2022/03/23 02:39:04;;;;;;;49.95;30.00;;;6.10;99.90;;;;;;6267941;22;20030;-57
2022/03/23 02:41:30;;;;;;;49.42;29.08;;;6.00;99.90;;;;;;6240486;22;20059;-57
2022/03/23 02:43:57;;;;;;;55.97;32.47;;;5.90;99.90;;;;;;6241173;22;20015;-57
2022/03/23 02:46:22;;;;;;;52.50;31.60;;;5.90;99.90;;;;;;6267650;22;20011;-58
2022/03/23 02:48:52;;;;;;;56.67;31.83;;;5.90;99.90;;;;;;6266619;22;20530;-57
2022/03/23 02:51:19;;;;;;;48.78;28.77;;;5.80;99.90;;;;;;6268359;22;20019;-57
2022/03/23 03:02:28;;;;;;;48.60;28.30;;;5.60;99.90;;;;;;6267656;22;20024;-57
2022/03/23 03:04:54;;;;;;;50.83;27.73;;;5.70;99.90;;;;;;6267847;22;20059;-57
2022/03/23 03:07:19;;;;;;;47.47;29.85;;;5.70;99.90;;;;;;6267953;22;20073;-57
2022/03/23 03:09:46;;;;;;;49.28;30.08;;;5.60;99.90;;;;;;6267143;22;20055;-57
2022/03/23 03:12:12;;;;;;;49.28;28.90;;;5.60;99.90;;;;;;6266922;22;20023;-57
2022/03/23 03:14:38;;;;;;;55.20;29.45;;;5.80;99.90;;;;;;6267740;22;20503;-57
2022/03/23 03:17:05;;;;;;;55.30;29.20;;;5.60;99.90;;;;;;6267495;22;20015;-57
2022/03/23 03:19:32;;;;;;;53.00;30.08;;;5.60;99.90;;;;;;6267305;22;20015;-57
2022/03/23 03:21:57;;;;;;;53.45;31.45;;;5.50;99.90;;;;;;6267903;22;20050;-66
2022/03/23 03:24:23;;;;;;;50.38;30.38;;;7.20;99.90;;;;;;6267784;22;20019;-64
2022/03/23 03:26:50;;;;;;;59.60;32.55;;;5.50;99.90;;;;;;6239800;22;20358;-58
2022/03/23 03:29:16;;;;;;;55.83;34.45;;;5.40;99.90;;;;;;6267073;22;20120;-63
2022/03/23 03:31:43;;;;;;;53.47;30.83;;;6.00;99.90;;;;;;6263740;22;20023;-56
2022/03/23 03:34:09;;;;;;;55.20;32.00;;;5.40;99.90;;;;;;6239035;22;20346;-57
2022/03/23 03:36:36;;;;;;;52.75;30.30;;;5.40;99.90;;;;;;6266182;22;20024;-62
2022/03/23 03:39:02;;;;;;;50.13;30.55;;;5.30;99.90;;;;;;6266810;22;20019;-58
2022/03/23 03:41:28;;;;;;;57.58;32.40;;;5.30;99.90;;;;;;6266330;22;20023;-57
2022/03/23 03:43:54;;;;;;;51.70;30.40;;;5.30;99.90;;;;;;6267698;22;20024;-57
2022/03/23 03:46:20;;;;;;;57.38;33.10;;;5.20;99.90;;;;;;6239775;22;20098;-57
2022/03/23 03:48:46;;;;;;;55.60;32.15;;;5.40;99.90;;;;;;6267664;22;20050;-58
2022/03/23 03:51:11;;;;;;;47.38;30.67;;;5.20;99.90;;;;;;6266984;22;20022;-57
2022/03/23 03:53:37;;;;;;;55.25;32.15;;;5.20;99.90;;;;;;6240346;22;20338;-57
2022/03/23 03:56:04;;;;;;;51.17;31.38;;;5.10;99.90;;;;;;6266757;22;20069;-57
2022/03/23 03:58:30;;;;;;;53.80;31.67;;;5.10;99.90;;;;;;6267365;22;20012;-58
2022/03/23 04:00:55;;;;;;;51.80;29.48;;;5.10;99.90;;;;;;6267202;22;20450;-57
2022/03/23 04:03:21;;;;;;;54.22;31.35;;;5.10;99.90;;;;;;6267035;22;20066;-58
2022/03/23 04:05:47;;;;;;;53.42;31.33;;;5.10;99.90;;;;;;6239234;22;20027;-58
2022/03/23 04:08:12;;;;;;;50.85;32.72;;;5.00;99.90;;;;;;6240303;22;20111;-57
2022/03/23 04:10:39;;;;;;;59.05;33.42;;;5.00;99.90;;;;;;6266982;22;20019;-57
2022/03/23 04:13:07;;;;;;;49.75;31.52;;;5.00;99.90;;;;;;6266942;22;20432;-57
2022/03/23 04:15:36;;;;;;;55.38;30.83;;;4.90;99.90;;;;;;6267601;22;20050;-57
2022/03/23 04:18:02;;;;;;;52.97;30.17;;;4.90;99.90;;;;;;6266438;22;20026;-57
2022/03/23 04:20:29;;;;;;;46.25;27.50;;;4.90;99.90;;;;;;6266414;22;20517;-57
2022/03/23 04:22:55;;;;;;;47.75;28.83;;;5.00;99.90;;;;;;6266769;22;20019;-57
2022/03/23 04:25:21;;;;;;;48.67;29.45;;;4.80;99.90;;;;;;6266921;22;20085;-58
2022/03/23 04:27:52;;;;;;;46.13;27.88;;;4.80;99.90;;;;;;6266653;22;20023;-69
2022/03/23 04:30:20;;;;;;;41.65;27.25;;;4.70;99.90;;;;;;6239174;22;20027;-66
2022/03/23 04:32:47;;;;;;;44.30;28.02;;;4.70;99.90;;;;;;6266890;22;20386;-64
2022/03/23 04:35:14;;;;;;;47.03;30.23;;;4.70;99.90;;;;;;6238731;22;20024;-68
2022/03/23 04:37:41;;;;;;;52.35;30.70;;;4.70;99.90;;;;;;6265991;22;20466;-57
2022/03/23 04:40:08;;;;;;;52.30;30.27;;;4.70;99.90;;;;;;6266906;22;20476;-56
2022/03/23 04:42:34;;;;;;;47.92;28.23;;;4.60;99.90;;;;;;6267008;22;20024;-57
2022/03/23 04:45:00;;;;;;;50.67;28.98;;;4.60;99.90;;;;;;6267183;22;20312;-57
2022/03/23 04:47:26;;;;;;;49.25;29.77;;;4.60;99.90;;;;;;6267051;22;20032;-57
2022/03/23 04:49:52;;;;;;;48.72;29.08;;;4.60;99.90;;;;;;6266412;22;20494;-57
2022/03/23 04:52:18;;;;;;;51.30;30.48;;;4.60;99.90;;;;;;6266686;22;20019;-56
2022/03/23 04:54:44;;;;;;;52.35;30.90;;;4.60;99.90;;;;;;6266299;22;20098;-60
2022/03/23 04:57:10;;;;;;;50.47;29.17;;;4.60;99.90;;;;;;6266241;22;20019;-61
2022/03/23 04:59:36;;;;;;;47.78;27.45;;;4.50;99.90;;;;;;6266743;22;20026;-59
2022/03/23 05:02:01;;;;;;;43.13;28.00;;;4.50;99.90;;;;;;6266242;22;20028;-63
2022/03/23 05:04:27;;;;;;;42.80;27.30;;;4.40;99.90;;;;;;6267137;22;20019;-60
2022/03/23 05:06:53;;;;;;;46.67;27.15;;;4.40;99.90;;;;;;6266340;22;20023;-61
2022/03/23 05:09:18;;;;;;;51.13;27.73;;;4.70;99.90;;;;;;6266932;22;20020;-57
2022/03/23 05:11:44;;;;;;;44.42;25.95;;;4.40;99.90;;;;;;6267333;22;20402;-60
2022/03/23 05:14:10;;;;;;;48.22;28.52;;;4.40;99.90;;;;;;6267327;22;20426;-61
2022/03/23 05:16:37;;;;;;;48.42;26.15;;;4.30;99.90;;;;;;6266393;22;20015;-58
2022/03/23 05:19:03;;;;;;;49.10;30.83;;;4.40;99.90;;;;;;6266598;22;20043;-59
2022/03/23 05:21:29;;;;;;;51.38;29.52;;;4.30;99.90;;;;;;6267257;22;20022;-64
2022/03/23 05:23:55;;;;;;;52.08;30.70;;;4.30;99.90;;;;;;6265860;22;20107;-63
2022/03/23 05:26:21;;;;;;;53.05;31.60;;;4.30;99.90;;;;;;6266431;22;20046;-63
2022/03/23 05:28:46;;;;;;;49.08;29.92;;;4.70;99.90;;;;;;6239029;22;20020;-65
2022/03/23 05:31:12;;;;;;;52.13;32.15;;;4.30;99.90;;;;;;6265415;22;20020;-59
2022/03/23 05:33:38;;;;;;;47.33;28.05;;;4.30;99.90;;;;;;6266075;22;20016;-67
2022/03/23 05:36:04;;;;;;;50.88;28.73;;;4.20;99.90;;;;;;6263503;22;20027;-57
2022/03/23 05:38:29;;;;;;;49.95;30.08;;;4.20;99.90;;;;;;6266427;22;20016;-66
2022/03/23 05:40:55;;;;;;;53.28;30.10;;;4.20;99.90;;;;;;6266435;22;20505;-63
2022/03/23 05:43:21;;;;;;;55.00;30.52;;;4.30;99.90;;;;;;6266629;22;20019;-60
2022/03/23 05:45:46;;;;;;;51.50;29.75;;;4.30;99.90;;;;;;6268199;22;20358;-72
2022/03/23 05:48:12;;;;;;;50.15;28.70;;;4.30;99.90;;;;;;6267277;22;20096;-66
2022/03/23 05:50:38;;;;;;;51.45;29.27;;;4.30;99.90;;;;;;6268326;22;20020;-63
2022/03/23 05:53:04;;;;;;;53.95;31.67;;;4.30;99.90;;;;;;6268681;22;20070;-65
2022/03/23 05:55:30;;;;;;;54.08;31.90;;;4.40;99.90;;;;;;6268381;22;20016;-61
2022/03/23 05:57:56;;;;;;;52.53;30.10;;;4.50;99.90;;;;;;6268494;22;20026;-74
2022/03/23 06:00:22;;;;;;;53.80;30.42;;;4.40;99.90;;;;;;6267722;22;20024;-63
2022/03/23 06:02:48;;;;;;;52.03;31.27;;;4.40;99.90;;;;;;6266727;22;20024;-73
2022/03/23 06:05:13;;;;;;;56.55;32.20;;;4.50;99.90;;;;;;6239375;22;20019;-76
2022/03/23 06:07:39;;;;;;;56.92;31.35;;;4.50;99.90;;;;;;6267680;22;20438;-63
2022/03/23 06:10:07;;;;;;;63.05;34.88;;;4.50;99.90;;;;;;6267230;22;20396;-57
2022/03/23 06:12:33;;;;;;;55.55;32.58;;;4.60;99.90;;;;;;6266312;22;20019;-59
2022/03/23 06:14:58;;;;;;;53.50;32.72;;;4.70;99.90;;;;;;6266147;22;20020;-66
2022/03/23 06:17:24;;;;;;;54.85;30.90;;;4.70;99.90;;;;;;6267096;22;20075;-61
2022/03/23 06:19:50;;;;;;;51.50;31.75;;;4.80;99.90;;;;;;6267201;22;20019;-61
2022/03/23 06:22:16;;;;;;;51.75;30.83;;;4.90;99.90;;;;;;6239079;22;20023;-62
2022/03/23 06:24:41;;;;;;;50.83;30.30;;;5.00;99.90;;;;;;6266423;22;20016;-57
2022/03/23 06:27:07;;;;;;;51.83;33.30;;;5.00;99.90;;;;;;6266333;22;20321;-60
2022/03/23 06:29:33;;;;;;;53.65;30.95;;;5.20;99.90;;;;;;6267085;22;20020;-63
2022/03/23 06:31:58;;;;;;;48.10;30.85;;;5.30;99.90;;;;;;6267240;22;20079;-61
2022/03/23 06:34:24;;;;;;;55.60;33.75;;;5.40;99.90;;;;;;6267968;22;20016;-58
2022/03/23 06:36:50;;;;;;;60.60;33.97;;;5.50;99.90;;;;;;6267976;22;20099;-64
2022/03/23 06:39:15;;;;;;;60.28;34.53;;;7.30;99.90;;;;;;6268289;22;20095;-70
2022/03/23 06:41:41;;;;;;;56.33;32.83;;;5.80;99.90;;;;;;6267829;22;20447;-62
2022/03/23 06:44:07;;;;;;;57.08;34.72;;;6.30;99.90;;;;;;6267667;22;20541;-58
2022/03/23 06:46:33;;;;;;;63.00;36.53;;;6.10;99.90;;;;;;6267670;22;20330;-57
2022/03/23 06:48:58;;;;;;;71.47;36.10;;;6.40;99.90;;;;;;6214379;22;20106;-58
2022/03/23 06:51:24;;;;;;;61.50;35.97;;;6.40;99.90;;;;;;6267151;22;20047;-58
2022/03/23 06:53:50;;;;;;;58.78;33.35;;;6.60;99.90;;;;;;6266531;22;20023;-58
2022/03/23 06:56:15;;;;;;;59.25;35.15;;;6.80;99.90;;;;;;6267142;22;20020;-66
2022/03/23 06:58:41;;;;;;;60.00;35.42;;;7.00;99.90;;;;;;6267464;22;20093;-58
2022/03/23 07:01:07;;;;;;;62.63;37.33;;;7.20;99.90;;;;;;6267675;22;20015;-58
2022/03/23 07:03:32;;;;;;;62.33;36.00;;;7.40;99.90;;;;;;6267217;22;20011;-68
2022/03/23 07:05:58;;;;;;;61.50;33.85;;;7.70;99.90;;;;;;6267915;22;20027;-73
2022/03/23 07:11:11;;;;;;;56.03;31.67;;;8.20;99.90;;;;;;6267213;22;20026;-68
2022/03/23 07:13:37;;;;;;;54.92;31.88;;;8.50;99.90;;;;;;6267827;22;20028;-62
2022/03/23 07:16:03;;;;;;;52.00;31.70;;;8.80;99.90;;;;;;6267458;22;20015;-58
2022/03/23 07:18:28;;;;;;;52.28;31.35;;;9.10;99.90;;;;;;6267655;22;20341;-57
2022/03/23 07:20:54;;;;;;;48.40;31.20;;;9.90;99.90;;;;;;6267339;22;20016;-57
2022/03/23 07:23:20;;;;;;;53.72;32.60;;;9.70;99.90;;;;;;6240399;22;20024;-57
2022/03/23 07:25:45;;;;;;;50.75;29.10;;;10.10;99.90;;;;;;6239633;22;20023;-57
2022/03/23 07:28:11;;;;;;;47.70;28.67;;;10.40;99.90;;;;;;6266860;22;20399;-57
2022/03/23 07:30:39;;;;;;;49.65;29.20;;;10.60;99.90;;;;;;6267393;22;20034;-57
2022/03/23 07:33:06;;;;;;;47.38;28.02;;;10.90;99.90;;;;;;6262003;22;20712;-58
2022/03/23 07:35:32;;;;;;;47.05;28.10;;;11.20;99.90;;;;;;6262301;22;20015;-57
2022/03/23 07:37:58;;;;;;;42.53;27.58;;;11.50;99.90;;;;;;6263876;22;20058;-59
2022/03/23 07:40:23;;;;;;;46.05;27.98;;;11.70;99.90;;;;;;6263674;22;20050;-57
2022/03/23 07:42:49;;;;;;;39.60;26.42;;;11.90;99.90;;;;;;6266371;22;20023;-60
2022/03/23 07:45:15;;;;;;;40.55;24.25;;;12.10;99.90;;;;;;6266160;22;20023;-57
2022/03/23 07:47:40;;;;;;;34.58;23.13;;;12.40;99.90;;;;;;6266486;22;20418;-55
2022/03/23 07:50:07;;;;;;;34.75;23.98;;;12.60;99.90;;;;;;6266019;22;20016;-62
2022/03/23 07:52:33;;;;;;;38.47;24.83;;;12.90;99.90;;;;;;6266691;22;20446;-56
2022/03/23 07:55:00;;;;;;;35.15;22.52;;;13.10;99.90;;;;;;6267329;22;20099;-56
2022/03/23 07:57:26;;;;;;;36.10;24.42;;;13.30;99.90;;;;;;6267294;22;20388;-57
2022/03/23 07:59:55;;;;;;;33.65;23.42;;;13.60;99.90;;;;;;6264241;22;20214;-56
2022/03/23 08:02:22;;;;;;;35.10;23.40;;;13.70;99.90;;;;;;6263471;22;20054;-56
2022/03/23 08:04:48;;;;;;;35.33;23.77;;;13.90;99.90;;;;;;6258493;22;20611;-56
2022/03/23 08:07:13;;;;;;;36.00;24.30;;;14.10;99.90;;;;;;6262316;22;20023;-56
2022/03/23 08:09:39;;;;;;;36.75;22.58;;;14.40;99.90;;;;;;6262790;22;20075;-56
2022/03/23 08:12:05;;;;;;;33.67;22.85;;;14.70;99.90;;;;;;6262824;22;20437;-56
2022/03/23 08:14:30;;;;;;;33.72;23.88;;;14.90;99.90;;;;;;6261949;22;20517;-56
2022/03/23 08:16:56;;;;;;;31.85;21.73;;;15.00;99.90;;;;;;6261253;22;20027;-56
2022/03/23 08:19:22;;;;;;;32.70;22.10;;;15.20;99.90;;;;;;6259481;22;20016;-56
2022/03/23 08:21:52;;;;;;;35.15;22.05;;;15.50;99.90;;;;;;6260690;22;20095;-56
2022/03/23 08:24:18;;;;;;;31.63;22.55;;;15.80;99.90;;;;;;6262273;22;20079;-56
2022/03/23 08:26:44;;;;;;;34.55;22.25;;;15.80;99.90;;;;;;6261340;22;20191;-56
2022/03/23 08:29:10;;;;;;;32.05;22.30;;;16.10;99.90;;;;;;6262005;22;20023;-56
2022/03/23 08:31:36;;;;;;;35.78;22.85;;;16.00;99.90;;;;;;6235567;22;20033;-56
2022/03/23 08:34:03;;;;;;;28.50;20.70;;;16.20;99.90;;;;;;6262767;22;20023;-56
2022/03/23 08:36:29;;;;;;;32.45;22.15;;;16.60;99.90;;;;;;6261852;22;20028;-56
2022/03/23 08:38:55;;;;;;;30.75;20.15;;;16.90;99.90;;;;;;6262459;22;20026;-56
2022/03/23 08:41:21;;;;;;;31.90;21.15;;;16.90;99.90;;;;;;6263168;22;20051;-56
2022/03/23 08:43:48;;;;;;;28.48;20.58;;;17.30;99.90;;;;;;6263120;22;20022;-56
2022/03/23 08:46:14;;;;;;;27.27;19.77;;;17.70;99.90;;;;;;6234987;22;20023;-55
2022/03/23 08:48:40;;;;;;;26.70;19.65;;;18.10;99.90;;;;;;6262141;22;20448;-56
2022/03/23 08:51:06;;;;;;;27.70;21.40;;;18.50;99.90;;;;;;6262515;22;20458;-56
2022/03/23 08:53:32;;;;;;;30.40;20.50;;;18.90;99.90;;;;;;6234863;22;20054;-56
2022/03/23 08:55:59;;;;;;;29.85;20.52;;;19.20;99.30;;;;;;6234947;22;20024;-56
2022/03/23 08:58:27;;;;;;;22.92;18.05;;;19.40;98.60;;;;;;6234930;22;20020;-55
2022/03/23 09:00:53;;;;;;;28.95;19.73;;;19.90;98.40;;;;;;6262659;22;20595;-56
2022/03/23 09:03:18;;;;;;;26.27;18.30;;;20.00;97.50;;;;;;6261677;22;20027;-56
2022/03/23 09:05:44;;;;;;;23.73;17.50;;;20.20;96.60;;;;;;6260737;22;20019;-55
2022/03/23 09:08:10;;;;;;;24.02;17.63;;;20.70;96.80;;;;;;6261902;22;20080;-55
2022/03/23 09:10:36;;;;;;;24.95;18.33;;;21.10;96.30;;;;;;6261811;22;20012;-57
2022/03/23 09:13:02;;;;;;;22.88;17.05;;;21.30;95.30;;;;;;6257385;22;20142;-56
2022/03/23 09:15:28;;;;;;;23.33;17.17;;;21.30;95.40;;;;;;6260859;22;20090;-56
2022/03/23 09:18:01;;;;;;;26.77;17.38;;;21.80;94.90;;;;;;6261091;22;20019;-55
2022/03/23 09:20:28;;;;;;;21.13;17.02;;;22.20;93.20;;;;;;6263293;22;20019;-56
2022/03/23 09:22:55;;;;;;;20.67;16.23;;;22.50;93.90;;;;;;6262631;22;20026;-56
2022/03/23 09:25:22;;;;;;;23.70;17.33;;;22.80;93.30;;;;;;6263565;22;20085;-56
2022/03/23 09:27:49;;;;;;;23.10;17.45;;;22.70;92.60;;;;;;6262399;22;20022;-59
2022/03/23 09:30:15;;;;;;;21.40;16.17;;;23.00;91.80;;;;;;6263266;22;20028;-59
2022/03/23 09:32:42;;;;;;;22.20;15.82;;;23.20;92.10;;;;;;6262219;22;20800;-59
2022/03/23 09:35:09;;;;;;;24.85;15.50;;;23.50;91.30;;;;;;6235510;22;20777;-56
2022/03/23 09:37:47;;;;;;;20.17;15.63;;;23.50;91.20;;;;;;6261385;22;20038;-65
2022/03/23 09:40:15;;;;;;;16.33;14.10;;;23.70;90.60;;;;;;6261826;22;20417;-57
2022/03/23 09:42:43;;;;;;;15.60;13.90;;;23.50;89.80;;;;;;6261562;22;20352;-56
2022/03/23 09:45:15;;;;;;;16.50;13.35;;;24.10;88.50;;;;;;6262729;22;20024;-59
2022/03/23 09:47:41;;;;;;;15.00;13.40;;;24.30;86.40;;;;;;6261052;22;20015;-58
2022/03/23 09:50:09;;;;;;;16.05;13.68;;;24.70;85.90;;;;;;6262361;22;20026;-66
2022/03/23 09:52:35;;;;;;;15.85;13.68;;;24.60;84.20;;;;;;6262307;22;20346;-64
2022/03/23 09:55:01;;;;;;;19.15;13.13;;;25.00;84.30;;;;;;6262876;22;20792;-60
2022/03/23 09:57:26;;;;;;;17.05;12.88;;;25.40;82.50;;;;;;6263089;22;20015;-57
2022/03/23 09:59:52;;;;;;;15.18;13.57;;;25.50;81.60;;;;;;6262546;22;20015;-65
2022/03/23 10:02:53;;;;;;;17.85;13.68;;;25.50;80.60;;;;;;6261884;22;20066;-64
2022/03/23 10:05:27;;;;;;;14.85;13.20;;;25.70;77.20;;;;;;6262876;22;20145;-61
2022/03/23 10:07:58;;;;;;;17.00;13.13;;;25.80;77.70;;;;;;6262503;22;20476;-60
2022/03/23 10:10:49;;;;;;;18.75;13.50;;;25.80;79.70;;;;;;6262425;22;20019;-60
2022/03/23 10:13:54;;;;;;;13.90;12.05;;;25.90;75.70;;;;;;6235961;22;20066;-57
2022/03/23 10:16:53;;;;;;;12.45;11.30;;;25.80;73.70;;;;;;6264086;22;20423;-57
2022/03/23 10:19:19;;;;;;;14.35;12.85;;;25.80;73.30;;;;;;6263642;22;20019;-58
2022/03/23 10:21:45;;;;;;;18.23;12.50;;;26.00;76.60;;;;;;6264351;22;20038;-56
2022/03/23 10:24:10;;;;;;;13.63;11.45;;;25.80;75.00;;;;;;6265009;22;20462;-56
2022/03/23 10:26:37;;;;;;;15.80;13.30;;;25.80;73.40;;;;;;6264279;22;20020;-56
2022/03/23 10:29:10;;;;;;;15.20;13.48;;;25.60;74.00;;;;;;6264699;22;20096;-56
2022/03/23 10:31:36;;;;;;;15.35;13.15;;;25.50;74.00;;;;;;6263936;22;20019;-57
2022/03/23 10:34:08;;;;;;;13.80;11.57;;;25.30;73.80;;;;;;6265545;22;20470;-57
2022/03/23 10:36:39;;;;;;;14.80;11.75;;;25.60;73.10;;;;;;6264530;22;20446;-57
2022/03/23 10:39:12;;;;;;;13.05;11.48;;;25.70;72.10;;;;;;6266287;22;20026;-57
2022/03/23 10:41:39;;;;;;;14.43;13.00;;;25.70;72.50;;;;;;6265579;22;20476;-56
2022/03/23 10:44:18;;;;;;;16.73;13.55;;;26.00;73.00;;;;;;6265268;22;20016;-56
2022/03/23 10:46:44;;;;;;;13.60;12.18;;;26.10;70.80;;;;;;6265775;22;20016;-56
2022/03/23 10:49:13;;;;;;;14.20;12.70;;;26.30;72.50;;;;;;6265836;22;20026;-57
2022/03/23 10:51:39;;;;;;;14.85;11.57;;;26.10;70.50;;;;;;6264331;22;20059;-57
2022/03/23 10:54:17;;;;;;;12.57;11.27;;;26.20;70.90;;;;;;6264626;22;20051;-57
2022/03/23 10:56:42;;;;;;;15.13;11.70;;;26.30;68.40;;;;;;6265349;22;20023;-58
2022/03/23 10:59:23;;;;;;;12.77;11.48;;;26.30;69.90;;;;;;6265119;22;20015;-58
2022/03/23 11:01:57;;;;;;;12.98;10.98;;;26.10;66.00;;;;;;6264095;22;20027;-58
2022/03/23 11:04:29;;;;;;;11.32;10.07;;;26.40;66.40;;;;;;6265033;22;20016;-57
2022/03/23 11:06:58;;;;;;;11.80;10.65;;;26.30;67.90;;;;;;6261942;22;20058;-57
2022/03/23 11:18:07;;;;;;;13.18;10.63;;;26.70;64.30;;;;;;6264142;22;20074;-65
2022/03/23 11:20:39;;;;;;;12.75;9.35;;;26.80;63.80;;;;;;6212733;22;20034;-62
2022/03/23 11:23:15;;;;;;;12.45;9.02;;;26.60;64.60;;;;;;6265137;22;20026;-65
2022/03/23 11:25:41;;;;;;;12.98;8.40;;;26.90;63.80;;;;;;6264113;22;20020;-65
2022/03/23 11:28:08;;;;;;;11.55;9.25;;;27.10;64.60;;;;;;6265459;22;20015;-56
2022/03/23 11:30:34;;;;;;;12.90;9.50;;;27.10;63.90;;;;;;6265447;22;20020;-62
2022/03/23 11:33:00;;;;;;;12.73;9.52;;;27.20;63.60;;;;;;6266182;22;20022;-57
2022/03/23 11:35:27;;;;;;;9.27;8.25;;;27.00;63.30;;;;;;6265096;22;20019;-60
2022/03/23 11:37:54;;;;;;;12.70;9.00;;;27.30;63.60;;;;;;6264877;22;20536;-56
2022/03/23 11:40:20;;;;;;;15.27;7.32;;;27.30;63.10;;;;;;6264575;22;20012;-56
2022/03/23 11:42:46;;;;;;;8.52;7.63;;;27.60;62.80;;;;;;6264852;22;20449;-56
2022/03/23 11:45:14;;;;;;;13.88;8.70;;;27.60;63.10;;;;;;6265440;22;20097;-56
2022/03/23 11:47:42;;;;;;;17.42;9.52;;;27.70;63.10;;;;;;6265751;22;20020;-56
2022/03/23 11:50:11;;;;;;;10.80;9.70;;;27.70;63.20;;;;;;6237630;22;20015;-56
2022/03/23 11:53:06;;;;;;;10.95;8.55;;;27.80;62.80;;;;;;6265499;22;20106;-56
2022/03/23 11:55:37;;;;;;;15.43;8.18;;;28.00;60.90;;;;;;6202773;22;20015;-56
2022/03/23 11:58:18;;;;;;;17.40;8.30;;;28.30;62.40;;;;;;6237734;22;20020;-56
2022/03/23 12:00:53;;;;;;;12.25;8.50;;;28.50;60.40;;;;;;6239537;22;20015;-56
2022/03/23 12:03:40;;;;;;;13.88;8.50;;;28.60;61.40;;;;;;6265697;22;20012;-56
2022/03/23 12:06:16;;;;;;;12.18;8.27;;;28.60;59.10;;;;;;6265444;22;20343;-56
2022/03/23 12:08:53;;;;;;;20.73;8.98;;;28.80;60.70;;;;;;6264475;22;20020;-57
2022/03/23 12:11:45;;;;;;;13.65;9.05;;;29.10;59.50;;;;;;6263055;22;20019;-57
2022/03/23 12:14:25;;;;;;;13.13;9.30;;;29.20;59.30;;;;;;6247413;22;20513;-57
2022/03/23 12:16:55;;;;;;;12.57;8.55;;;29.00;58.50;;;;;;6263799;22;20030;-56
2022/03/23 12:19:25;;;;;;;15.68;8.27;;;28.90;61.10;;;;;;6263779;22;20015;-57
2022/03/23 12:22:06;;;;;;;17.95;9.10;;;29.20;60.60;;;;;;6260532;22;20051;-57
2022/03/23 12:24:41;;;;;;;17.35;10.18;;;29.70;57.10;;;;;;6263410;22;20458;-57
2022/03/23 12:27:24;;;;;;;14.38;8.85;;;29.70;58.40;;;;;;6263226;22;20023;-57
2022/03/23 12:29:51;;;;;;;12.77;9.50;;;30.80;58.80;;;;;;6262916;22;20020;-59
2022/03/23 12:32:18;;;;;;;14.13;10.05;;;32.00;59.30;;;;;;6263036;22;20031;-58
2022/03/23 12:34:45;;;;;;;15.65;9.65;;;34.00;59.00;;;;;;6262384;22;20027;-59
2022/03/23 12:37:16;;;;;;;14.40;8.65;;;35.90;57.70;;;;;;6262271;22;20355;-57
2022/03/23 12:39:53;;;;;;;12.88;7.88;;;37.40;55.80;;;;;;6262124;22;20042;-57
2022/03/23 12:42:29;;;;;;;11.02;8.23;;;38.70;54.50;;;;;;6263120;22;20020;-61
2022/03/23 12:45:15;;;;;;;12.77;8.93;;;39.10;53.40;;;;;;6261807;22;20023;-60
2022/03/23 12:59:36;;;;;;;13.82;7.32;;;39.80;47.40;;;;;;6262390;22;20020;-57
2022/03/23 13:02:17;;;;;;;9.45;6.30;;;40.30;46.60;;;;;;6261757;22;20461;-58
2022/03/23 13:04:43;;;;;;;15.02;4.88;;;40.70;46.40;;;;;;6262151;22;20020;-58
2022/03/23 13:07:27;;;;;;;20.38;6.35;;;39.60;45.50;;;;;;6262657;22;20035;-66
2022/03/23 13:10:14;;;;;;;12.35;5.88;;;38.80;44.10;;;;;;6262526;22;20075;-63